Alvarado, Texas
Current Conditions -  °F | °C
As of 8:15 PM on Saturday 22 Nov 2014 (Local Time) from KFWS Reporting Station
Haze Haze  
Wind Chill: 56°   Ceiling: Unl
Heat Index: 56°   Visibility: 5mi
Dew Point: 54°   Wind: 0mph
Humidity: 93%   Direction: NA
Pressure: 29.83"   Gusts: NA
Location:  32.41°N, 97.21°W
Report Text: KFWS 230215Z AUTO 00000KT 5SM BR SCT040 SCT110 14/12 A2983 RMK AO2 LTG DSNT SE T01350124
Loading
Personal Weather Stations






























Interactive Weather Map New forecast layout! Learn more

10-Day Weather Forecast

Advertisements
Track Severe Weather on mobile